sensor_id;sensor_type;location;lat;lon;timestamp;P1;durP1;ratioP1;P2;durP2;ratioP2
75698;SDS011;64313;51.018;13.742;2023-03-21T00:00:22;8.30;;;5.00;;
75698;SDS011;64313;51.018;13.742;2023-03-21T00:02:47;8.52;;;4.45;;
75698;SDS011;64313;51.018;13.742;2023-03-21T00:05:13;9.40;;;4.93;;
75698;SDS011;64313;51.018;13.742;2023-03-21T00:07:38;10.18;;;4.70;;
75698;SDS011;64313;51.018;13.742;2023-03-21T00:10:04;8.40;;;4.90;;
75698;SDS011;64313;51.018;13.742;2023-03-21T00:12:30;9.70;;;5.05;;
75698;SDS011;64313;51.018;13.742;2023-03-21T00:14:58;10.48;;;5.20;;
75698;SDS011;64313;51.018;13.742;2023-03-21T00:17:28;9.70;;;4.88;;
75698;SDS011;64313;51.018;13.742;2023-03-21T00:19:57;8.80;;;4.53;;
75698;SDS011;64313;51.018;13.742;2023-03-21T00:22:23;8.75;;;4.82;;
75698;SDS011;64313;51.018;13.742;2023-03-21T00:24:49;9.85;;;4.90;;
75698;SDS011;64313;51.018;13.742;2023-03-21T00:27:16;10.88;;;6.00;;
75698;SDS011;64313;51.018;13.742;2023-03-21T00:29:43;8.82;;;4.70;;
75698;SDS011;64313;51.018;13.742;2023-03-21T00:32:08;8.70;;;4.93;;
75698;SDS011;64313;51.018;13.742;2023-03-21T00:34:34;9.35;;;4.97;;
75698;SDS011;64313;51.018;13.742;2023-03-21T00:36:59;8.20;;;4.80;;
75698;SDS011;64313;51.018;13.742;2023-03-21T00:39:25;8.80;;;4.68;;
75698;SDS011;64313;51.018;13.742;2023-03-21T00:41:50;9.90;;;5.03;;
75698;SDS011;64313;51.018;13.742;2023-03-21T00:44:16;9.13;;;5.00;;
75698;SDS011;64313;51.018;13.742;2023-03-21T00:46:41;9.40;;;5.10;;
75698;SDS011;64313;51.018;13.742;2023-03-21T00:49:07;9.93;;;5.32;;
75698;SDS011;64313;51.018;13.742;2023-03-21T00:51:32;9.85;;;5.50;;
75698;SDS011;64313;51.018;13.742;2023-03-21T00:53:57;11.70;;;6.28;;
75698;SDS011;64313;51.018;13.742;2023-03-21T00:56:26;9.93;;;5.32;;
75698;SDS011;64313;51.018;13.742;2023-03-21T00:58:51;12.23;;;6.53;;
75698;SDS011;64313;51.018;13.742;2023-03-21T01:01:17;15.02;;;6.97;;
75698;SDS011;64313;51.018;13.742;2023-03-21T01:03:42;12.52;;;7.13;;
75698;SDS011;64313;51.018;13.742;2023-03-21T01:06:12;16.25;;;7.55;;
75698;SDS011;64313;51.018;13.742;2023-03-21T01:08:38;16.23;;;8.25;;
75698;SDS011;64313;51.018;13.742;2023-03-21T01:11:10;13.65;;;7.53;;
75698;SDS011;64313;51.018;13.742;2023-03-21T01:13:37;14.68;;;8.90;;
75698;SDS011;64313;51.018;13.742;2023-03-21T01:16:03;13.77;;;7.82;;
75698;SDS011;64313;51.018;13.742;2023-03-21T01:18:31;15.90;;;9.68;;
75698;SDS011;64313;51.018;13.742;2023-03-21T01:20:58;15.30;;;8.77;;
75698;SDS011;64313;51.018;13.742;2023-03-21T01:23:24;14.02;;;8.57;;
75698;SDS011;64313;51.018;13.742;2023-03-21T01:25:51;16.27;;;8.05;;
75698;SDS011;64313;51.018;13.742;2023-03-21T01:28:18;14.13;;;7.82;;
75698;SDS011;64313;51.018;13.742;2023-03-21T01:30:44;13.63;;;7.85;;
75698;SDS011;64313;51.018;13.742;2023-03-21T01:33:13;13.13;;;7.95;;
75698;SDS011;64313;51.018;13.742;2023-03-21T01:35:39;13.77;;;7.90;;
75698;SDS011;64313;51.018;13.742;2023-03-21T01:38:05;13.88;;;8.10;;
75698;SDS011;64313;51.018;13.742;2023-03-21T01:40:31;15.25;;;8.80;;
75698;SDS011;64313;51.018;13.742;2023-03-21T01:43:27;14.23;;;8.57;;
75698;SDS011;64313;51.018;13.742;2023-03-21T01:51:56;14.55;;;8.57;;
75698;SDS011;64313;51.018;13.742;2023-03-21T01:54:25;17.65;;;9.32;;
75698;SDS011;64313;51.018;13.742;2023-03-21T01:56:56;15.60;;;8.60;;
75698;SDS011;64313;51.018;13.742;2023-03-21T02:02:26;16.17;;;8.80;;
75698;SDS011;64313;51.018;13.742;2023-03-21T02:05:04;14.25;;;8.27;;
75698;SDS011;64313;51.018;13.742;2023-03-21T02:07:31;13.85;;;8.35;;
75698;SDS011;64313;51.018;13.742;2023-03-21T02:10:07;15.45;;;9.15;;
75698;SDS011;64313;51.018;13.742;2023-03-21T02:12:39;15.38;;;8.93;;
75698;SDS011;64313;51.018;13.742;2023-03-21T02:15:05;16.50;;;8.63;;
75698;SDS011;64313;51.018;13.742;2023-03-21T02:17:57;14.85;;;8.48;;
75698;SDS011;64313;51.018;13.742;2023-03-21T02:20:51;14.55;;;8.65;;
75698;SDS011;64313;51.018;13.742;2023-03-21T02:23:50;13.32;;;8.30;;
75698;SDS011;64313;51.018;13.742;2023-03-21T02:26:54;14.75;;;9.02;;
75698;SDS011;64313;51.018;13.742;2023-03-21T02:29:35;16.60;;;9.30;;
75698;SDS011;64313;51.018;13.742;2023-03-21T02:35:10;14.10;;;8.98;;
75698;SDS011;64313;51.018;13.742;2023-03-21T02:38:01;13.60;;;8.32;;
75698;SDS011;64313;51.018;13.742;2023-03-21T02:43:45;15.02;;;9.40;;
75698;SDS011;64313;51.018;13.742;2023-03-21T02:46:20;14.07;;;8.70;;
75698;SDS011;64313;51.018;13.742;2023-03-21T02:48:55;13.07;;;8.32;;
75698;SDS011;64313;51.018;13.742;2023-03-21T02:51:25;13.45;;;8.23;;
75698;SDS011;64313;51.018;13.742;2023-03-21T02:53:57;14.40;;;9.05;;
75698;SDS011;64313;51.018;13.742;2023-03-21T02:56:27;14.23;;;8.63;;
75698;SDS011;64313;51.018;13.742;2023-03-21T02:58:55;14.55;;;8.70;;
75698;SDS011;64313;51.018;13.742;2023-03-21T03:01:21;12.90;;;8.43;;
75698;SDS011;64313;51.018;13.742;2023-03-21T03:03:51;13.82;;;8.68;;
75698;SDS011;64313;51.018;13.742;2023-03-21T03:06:26;13.43;;;8.25;;
75698;SDS011;64313;51.018;13.742;2023-03-21T03:09:06;14.25;;;8.35;;
75698;SDS011;64313;51.018;13.742;2023-03-21T03:11:47;12.85;;;8.32;;
75698;SDS011;64313;51.018;13.742;2023-03-21T03:14:31;13.02;;;8.30;;
75698;SDS011;64313;51.018;13.742;2023-03-21T03:17:19;14.63;;;8.85;;
75698;SDS011;64313;51.018;13.742;2023-03-21T03:22:49;12.65;;;7.32;;
75698;SDS011;64313;51.018;13.742;2023-03-21T03:25:42;12.57;;;7.45;;
75698;SDS011;64313;51.018;13.742;2023-03-21T03:28:06;13.65;;;7.40;;
75698;SDS011;64313;51.018;13.742;2023-03-21T03:30:33;12.35;;;7.43;;
75698;SDS011;64313;51.018;13.742;2023-03-21T03:33:02;12.68;;;7.85;;
75698;SDS011;64313;51.018;13.742;2023-03-21T03:35:30;13.27;;;8.32;;
75698;SDS011;64313;51.018;13.742;2023-03-21T03:37:57;13.45;;;8.63;;
75698;SDS011;64313;51.018;13.742;2023-03-21T03:40:28;14.90;;;8.65;;
75698;SDS011;64313;51.018;13.742;2023-03-21T03:43:10;14.98;;;8.70;;
75698;SDS011;64313;51.018;13.742;2023-03-21T03:45:48;13.63;;;8.57;;
75698;SDS011;64313;51.018;13.742;2023-03-21T03:50:46;15.73;;;9.23;;
75698;SDS011;64313;51.018;13.742;2023-03-21T03:53:26;18.00;;;9.52;;
75698;SDS011;64313;51.018;13.742;2023-03-21T03:55:58;15.52;;;9.90;;
75698;SDS011;64313;51.018;13.742;2023-03-21T03:58:26;14.38;;;9.38;;
75698;SDS011;64313;51.018;13.742;2023-03-21T04:00:53;16.00;;;9.70;;
75698;SDS011;64313;51.018;13.742;2023-03-21T04:03:19;20.58;;;10.15;;
75698;SDS011;64313;51.018;13.742;2023-03-21T04:05:44;14.93;;;9.35;;
75698;SDS011;64313;51.018;13.742;2023-03-21T04:08:12;17.17;;;10.50;;
75698;SDS011;64313;51.018;13.742;2023-03-21T04:10:41;16.17;;;10.02;;
75698;SDS011;64313;51.018;13.742;2023-03-21T04:13:08;16.45;;;10.50;;
75698;SDS011;64313;51.018;13.742;2023-03-21T04:15:54;14.40;;;8.90;;
75698;SDS011;64313;51.018;13.742;2023-03-21T04:18:20;14.70;;;8.70;;
75698;SDS011;64313;51.018;13.742;2023-03-21T04:20:47;14.45;;;9.20;;
75698;SDS011;64313;51.018;13.742;2023-03-21T04:23:15;14.45;;;8.93;;
75698;SDS011;64313;51.018;13.742;2023-03-21T04:25:44;14.70;;;8.82;;
75698;SDS011;64313;51.018;13.742;2023-03-21T04:28:10;12.52;;;7.65;;
75698;SDS011;64313;51.018;13.742;2023-03-21T04:30:40;12.25;;;7.80;;
75698;SDS011;64313;51.018;13.742;2023-03-21T04:33:10;11.25;;;7.28;;
75698;SDS011;64313;51.018;13.742;2023-03-21T04:35:37;13.00;;;7.70;;
75698;SDS011;64313;51.018;13.742;2023-03-21T04:38:03;13.07;;;7.30;;
75698;SDS011;64313;51.018;13.742;2023-03-21T04:40:30;11.30;;;6.97;;
75698;SDS011;64313;51.018;13.742;2023-03-21T04:42:55;12.20;;;7.18;;
75698;SDS011;64313;51.018;13.742;2023-03-21T04:45:21;12.10;;;6.63;;
75698;SDS011;64313;51.018;13.742;2023-03-21T04:50:11;12.27;;;6.50;;
75698;SDS011;64313;51.018;13.742;2023-03-21T04:52:38;13.20;;;7.30;;
75698;SDS011;64313;51.018;13.742;2023-03-21T04:55:03;11.65;;;6.47;;
75698;SDS011;64313;51.018;13.742;2023-03-21T04:57:29;11.63;;;7.18;;
75698;SDS011;64313;51.018;13.742;2023-03-21T04:59:56;13.15;;;8.07;;
75698;SDS011;64313;51.018;13.742;2023-03-21T05:02:22;13.48;;;7.38;;
75698;SDS011;64313;51.018;13.742;2023-03-21T05:04:47;11.27;;;6.70;;
75698;SDS011;64313;51.018;13.742;2023-03-21T05:07:12;11.43;;;6.72;;
75698;SDS011;64313;51.018;13.742;2023-03-21T05:09:38;11.50;;;6.05;;
75698;SDS011;64313;51.018;13.742;2023-03-21T05:14:30;9.65;;;5.18;;
75698;SDS011;64313;51.018;13.742;2023-03-21T05:16:57;8.85;;;4.38;;
75698;SDS011;64313;51.018;13.742;2023-03-21T05:19:25;9.63;;;4.70;;
75698;SDS011;64313;51.018;13.742;2023-03-21T05:22:06;9.45;;;4.78;;
75698;SDS011;64313;51.018;13.742;2023-03-21T05:24:33;9.07;;;4.45;;
75698;SDS011;64313;51.018;13.742;2023-03-21T05:27:01;8.70;;;4.20;;
75698;SDS011;64313;51.018;13.742;2023-03-21T05:29:30;6.88;;;3.80;;
75698;SDS011;64313;51.018;13.742;2023-03-21T05:32:00;9.25;;;4.00;;
75698;SDS011;64313;51.018;13.742;2023-03-21T05:34:26;9.50;;;3.80;;
75698;SDS011;64313;51.018;13.742;2023-03-21T05:36:52;9.13;;;3.67;;
75698;SDS011;64313;51.018;13.742;2023-03-21T05:39:20;7.40;;;3.95;;
75698;SDS011;64313;51.018;13.742;2023-03-21T05:41:57;7.32;;;3.60;;
75698;SDS011;64313;51.018;13.742;2023-03-21T05:44:23;7.88;;;4.15;;
75698;SDS011;64313;51.018;13.742;2023-03-21T05:46:49;8.23;;;3.65;;
75698;SDS011;64313;51.018;13.742;2023-03-21T05:49:15;7.32;;;3.83;;
75698;SDS011;64313;51.018;13.742;2023-03-21T05:51:41;11.05;;;4.88;;
75698;SDS011;64313;51.018;13.742;2023-03-21T05:54:08;9.10;;;3.65;;
75698;SDS011;64313;51.018;13.742;2023-03-21T05:56:34;8.82;;;3.90;;
75698;SDS011;64313;51.018;13.742;2023-03-21T05:59:05;8.32;;;3.70;;
75698;SDS011;64313;51.018;13.742;2023-03-21T06:01:36;6.65;;;3.25;;
75698;SDS011;64313;51.018;13.742;2023-03-21T06:04:09;7.90;;;3.35;;
75698;SDS011;64313;51.018;13.742;2023-03-21T06:06:35;6.88;;;3.38;;
75698;SDS011;64313;51.018;13.742;2023-03-21T06:11:28;9.25;;;4.20;;
75698;SDS011;64313;51.018;13.742;2023-03-21T06:14:14;8.70;;;3.60;;
75698;SDS011;64313;51.018;13.742;2023-03-21T06:16:41;7.18;;;3.90;;
75698;SDS011;64313;51.018;13.742;2023-03-21T06:19:07;6.80;;;3.60;;
75698;SDS011;64313;51.018;13.742;2023-03-21T06:21:40;6.68;;;3.47;;
75698;SDS011;64313;51.018;13.742;2023-03-21T06:24:07;7.57;;;3.45;;
75698;SDS011;64313;51.018;13.742;2023-03-21T06:26:33;7.82;;;3.60;;
75698;SDS011;64313;51.018;13.742;2023-03-21T06:28:59;7.97;;;3.53;;
75698;SDS011;64313;51.018;13.742;2023-03-21T06:31:25;7.18;;;3.65;;
75698;SDS011;64313;51.018;13.742;2023-03-21T06:33:56;6.95;;;3.45;;
75698;SDS011;64313;51.018;13.742;2023-03-21T06:36:22;6.35;;;3.42;;
75698;SDS011;64313;51.018;13.742;2023-03-21T06:41:13;8.00;;;3.60;;
75698;SDS011;64313;51.018;13.742;2023-03-21T06:43:47;9.65;;;4.05;;
75698;SDS011;64313;51.018;13.742;2023-03-21T06:46:13;8.65;;;3.95;;
75698;SDS011;64313;51.018;13.742;2023-03-21T06:48:38;7.68;;;3.67;;
75698;SDS011;64313;51.018;13.742;2023-03-21T06:51:12;9.80;;;4.22;;
75698;SDS011;64313;51.018;13.742;2023-03-21T06:53:46;6.82;;;3.38;;
75698;SDS011;64313;51.018;13.742;2023-03-21T06:56:18;9.85;;;4.38;;
75698;SDS011;64313;51.018;13.742;2023-03-21T06:58:44;8.20;;;3.95;;
75698;SDS011;64313;51.018;13.742;2023-03-21T07:01:21;7.43;;;3.42;;
75698;SDS011;64313;51.018;13.742;2023-03-21T07:03:54;8.38;;;3.40;;
75698;SDS011;64313;51.018;13.742;2023-03-21T07:06:22;7.95;;;3.60;;
75698;SDS011;64313;51.018;13.742;2023-03-21T07:08:51;6.22;;;3.13;;
75698;SDS011;64313;51.018;13.742;2023-03-21T07:11:17;8.57;;;4.43;;
75698;SDS011;64313;51.018;13.742;2023-03-21T07:13:45;7.78;;;3.80;;
75698;SDS011;64313;51.018;13.742;2023-03-21T07:16:13;7.38;;;3.90;;
75698;SDS011;64313;51.018;13.742;2023-03-21T07:18:40;9.82;;;4.18;;
75698;SDS011;64313;51.018;13.742;2023-03-21T07:21:06;8.98;;;4.00;;
75698;SDS011;64313;51.018;13.742;2023-03-21T07:25:57;6.72;;;3.20;;
75698;SDS011;64313;51.018;13.742;2023-03-21T07:30:56;7.53;;;3.50;;
75698;SDS011;64313;51.018;13.742;2023-03-21T07:33:24;6.55;;;3.13;;
75698;SDS011;64313;51.018;13.742;2023-03-21T07:35:53;8.00;;;3.33;;
75698;SDS011;64313;51.018;13.742;2023-03-21T07:38:19;7.50;;;3.65;;
75698;SDS011;64313;51.018;13.742;2023-03-21T07:40:46;8.15;;;3.50;;
75698;SDS011;64313;51.018;13.742;2023-03-21T07:43:13;8.05;;;3.95;;
75698;SDS011;64313;51.018;13.742;2023-03-21T07:45:42;7.38;;;3.83;;
75698;SDS011;64313;51.018;13.742;2023-03-21T07:48:08;7.78;;;3.88;;
75698;SDS011;64313;51.018;13.742;2023-03-21T07:50:34;7.13;;;3.60;;
75698;SDS011;64313;51.018;13.742;2023-03-21T07:53:00;10.45;;;3.97;;
75698;SDS011;64313;51.018;13.742;2023-03-21T07:57:51;8.55;;;3.92;;
75698;SDS011;64313;51.018;13.742;2023-03-21T08:02:53;8.77;;;3.53;;
75698;SDS011;64313;51.018;13.742;2023-03-21T08:05:22;6.85;;;3.40;;
75698;SDS011;64313;51.018;13.742;2023-03-21T08:07:48;8.32;;;4.28;;
75698;SDS011;64313;51.018;13.742;2023-03-21T08:10:14;7.75;;;3.70;;
75698;SDS011;64313;51.018;13.742;2023-03-21T08:12:41;8.70;;;4.00;;
75698;SDS011;64313;51.018;13.742;2023-03-21T08:15:07;9.55;;;4.38;;
75698;SDS011;64313;51.018;13.742;2023-03-21T08:17:32;10.40;;;4.10;;
75698;SDS011;64313;51.018;13.742;2023-03-21T08:20:00;7.90;;;4.03;;
75698;SDS011;64313;51.018;13.742;2023-03-21T08:22:25;10.73;;;4.40;;
75698;SDS011;64313;51.018;13.742;2023-03-21T08:24:50;8.75;;;4.15;;
75698;SDS011;64313;51.018;13.742;2023-03-21T08:27:16;7.53;;;3.95;;
75698;SDS011;64313;51.018;13.742;2023-03-21T08:29:41;8.85;;;4.20;;
75698;SDS011;64313;51.018;13.742;2023-03-21T08:32:07;7.28;;;3.70;;
75698;SDS011;64313;51.018;13.742;2023-03-21T08:34:32;9.48;;;3.90;;
75698;SDS011;64313;51.018;13.742;2023-03-21T08:36:59;8.65;;;4.10;;
75698;SDS011;64313;51.018;13.742;2023-03-21T08:39:25;8.35;;;3.58;;
75698;SDS011;64313;51.018;13.742;2023-03-21T08:41:51;7.95;;;3.60;;
75698;SDS011;64313;51.018;13.742;2023-03-21T08:44:17;7.85;;;3.40;;
75698;SDS011;64313;51.018;13.742;2023-03-21T08:46:44;7.88;;;3.42;;
75698;SDS011;64313;51.018;13.742;2023-03-21T08:49:09;7.82;;;4.18;;
75698;SDS011;64313;51.018;13.742;2023-03-21T08:51:35;7.78;;;3.35;;
75698;SDS011;64313;51.018;13.742;2023-03-21T08:54:01;8.07;;;3.25;;
75698;SDS011;64313;51.018;13.742;2023-03-21T08:56:27;7.75;;;3.30;;
75698;SDS011;64313;51.018;13.742;2023-03-21T08:58:52;7.55;;;3.53;;
75698;SDS011;64313;51.018;13.742;2023-03-21T09:03:43;7.43;;;3.10;;
75698;SDS011;64313;51.018;13.742;2023-03-21T09:06:09;7.97;;;3.00;;
75698;SDS011;64313;51.018;13.742;2023-03-21T09:08:39;7.35;;;3.38;;
75698;SDS011;64313;51.018;13.742;2023-03-21T09:11:06;7.75;;;3.30;;
75698;SDS011;64313;51.018;13.742;2023-03-21T09:13:32;7.40;;;3.05;;
75698;SDS011;64313;51.018;13.742;2023-03-21T09:15:58;9.00;;;3.50;;
75698;SDS011;64313;51.018;13.742;2023-03-21T09:18:25;6.07;;;3.03;;
75698;SDS011;64313;51.018;13.742;2023-03-21T09:21:10;7.43;;;3.78;;
75698;SDS011;64313;51.018;13.742;2023-03-21T09:23:38;9.93;;;3.88;;
75698;SDS011;64313;51.018;13.742;2023-03-21T09:26:05;7.03;;;3.05;;
75698;SDS011;64313;51.018;13.742;2023-03-21T09:28:33;7.38;;;3.58;;
75698;SDS011;64313;51.018;13.742;2023-03-21T09:30:59;6.55;;;3.00;;
75698;SDS011;64313;51.018;13.742;2023-03-21T09:33:26;6.47;;;2.58;;
75698;SDS011;64313;51.018;13.742;2023-03-21T09:35:53;5.15;;;2.30;;
75698;SDS011;64313;51.018;13.742;2023-03-21T09:38:19;8.07;;;2.88;;
75698;SDS011;64313;51.018;13.742;2023-03-21T09:43:30;6.70;;;2.70;;
75698;SDS011;64313;51.018;13.742;2023-03-21T09:52:29;6.93;;;2.38;;
75698;SDS011;64313;51.018;13.742;2023-03-21T09:54:56;7.68;;;2.30;;
75698;SDS011;64313;51.018;13.742;2023-03-21T09:57:28;7.82;;;2.90;;
75698;SDS011;64313;51.018;13.742;2023-03-21T09:59:59;4.80;;;2.20;;
75698;SDS011;64313;51.018;13.742;2023-03-21T10:02:42;7.68;;;2.40;;
75698;SDS011;64313;51.018;13.742;2023-03-21T10:05:18;6.95;;;2.15;;
75698;SDS011;64313;51.018;13.742;2023-03-21T10:08:05;6.63;;;1.98;;
75698;SDS011;64313;51.018;13.742;2023-03-21T10:11:01;4.75;;;1.70;;
75698;SDS011;64313;51.018;13.742;2023-03-21T10:13:38;5.32;;;2.10;;
75698;SDS011;64313;51.018;13.742;2023-03-21T10:16:14;4.53;;;1.80;;
75698;SDS011;64313;51.018;13.742;2023-03-21T10:18:43;5.95;;;1.95;;
75698;SDS011;64313;51.018;13.742;2023-03-21T10:21:11;5.10;;;2.03;;
75698;SDS011;64313;51.018;13.742;2023-03-21T10:23:44;4.85;;;1.77;;
75698;SDS011;64313;51.018;13.742;2023-03-21T10:26:09;4.82;;;2.00;;
75698;SDS011;64313;51.018;13.742;2023-03-21T10:28:36;5.70;;;2.40;;
75698;SDS011;64313;51.018;13.742;2023-03-21T10:31:05;4.97;;;2.20;;
75698;SDS011;64313;51.018;13.742;2023-03-21T10:33:33;5.00;;;2.28;;
75698;SDS011;64313;51.018;13.742;2023-03-21T10:36:01;5.32;;;2.10;;
75698;SDS011;64313;51.018;13.742;2023-03-21T10:38:30;4.78;;;1.98;;
75698;SDS011;64313;51.018;13.742;2023-03-21T10:40:56;5.65;;;2.20;;
75698;SDS011;64313;51.018;13.742;2023-03-21T10:45:50;5.28;;;2.38;;
75698;SDS011;64313;51.018;13.742;2023-03-21T10:48:15;4.90;;;2.00;;
75698;SDS011;64313;51.018;13.742;2023-03-21T10:50:41;5.88;;;2.25;;
75698;SDS011;64313;51.018;13.742;2023-03-21T10:53:14;7.90;;;3.30;;
75698;SDS011;64313;51.018;13.742;2023-03-21T10:55:45;6.00;;;2.22;;
75698;SDS011;64313;51.018;13.742;2023-03-21T10:58:16;5.60;;;2.50;;
75698;SDS011;64313;51.018;13.742;2023-03-21T11:00:51;6.05;;;2.30;;
75698;SDS011;64313;51.018;13.742;2023-03-21T11:03:32;4.80;;;2.10;;
75698;SDS011;64313;51.018;13.742;2023-03-21T11:06:07;5.28;;;2.35;;
75698;SDS011;64313;51.018;13.742;2023-03-21T11:08:38;8.05;;;2.53;;
75698;SDS011;64313;51.018;13.742;2023-03-21T11:11:09;5.85;;;2.10;;
75698;SDS011;64313;51.018;13.742;2023-03-21T11:13:40;4.50;;;2.17;;
75698;SDS011;64313;51.018;13.742;2023-03-21T11:16:09;6.53;;;2.42;;
75698;SDS011;64313;51.018;13.742;2023-03-21T11:18:39;6.20;;;2.50;;
75698;SDS011;64313;51.018;13.742;2023-03-21T11:21:13;5.18;;;2.28;;
75698;SDS011;64313;51.018;13.742;2023-03-21T11:23:41;4.43;;;2.15;;
75698;SDS011;64313;51.018;13.742;2023-03-21T11:26:11;3.90;;;1.75;;
75698;SDS011;64313;51.018;13.742;2023-03-21T11:28:42;4.63;;;2.05;;
75698;SDS011;64313;51.018;13.742;2023-03-21T11:31:10;5.00;;;2.38;;
75698;SDS011;64313;51.018;13.742;2023-03-21T11:33:37;5.07;;;2.22;;
75698;SDS011;64313;51.018;13.742;2023-03-21T11:36:06;5.22;;;2.35;;
75698;SDS011;64313;51.018;13.742;2023-03-21T11:38:59;5.13;;;2.72;;
75698;SDS011;64313;51.018;13.742;2023-03-21T11:41:39;4.70;;;1.85;;
75698;SDS011;64313;51.018;13.742;2023-03-21T11:44:08;5.07;;;2.30;;
75698;SDS011;64313;51.018;13.742;2023-03-21T11:46:51;4.82;;;2.17;;
75698;SDS011;64313;51.018;13.742;2023-03-21T11:49:16;4.35;;;1.95;;
75698;SDS011;64313;51.018;13.742;2023-03-21T11:54:31;5.97;;;2.80;;
75698;SDS011;64313;51.018;13.742;2023-03-21T11:57:08;5.25;;;2.00;;
75698;SDS011;64313;51.018;13.742;2023-03-21T11:59:50;4.45;;;1.88;;
75698;SDS011;64313;51.018;13.742;2023-03-21T12:02:44;4.47;;;2.08;;
75698;SDS011;64313;51.018;13.742;2023-03-21T12:05:32;6.40;;;2.40;;
75698;SDS011;64313;51.018;13.742;2023-03-21T12:08:01;4.05;;;1.80;;
75698;SDS011;64313;51.018;13.742;2023-03-21T12:10:37;5.25;;;2.15;;
75698;SDS011;64313;51.018;13.742;2023-03-21T12:16:14;4.78;;;1.80;;
75698;SDS011;64313;51.018;13.742;2023-03-21T12:22:00;4.55;;;1.60;;
75698;SDS011;64313;51.018;13.742;2023-03-21T12:27:07;4.60;;;1.88;;
75698;SDS011;64313;51.018;13.742;2023-03-21T12:41:32;3.72;;;1.52;;
75698;SDS011;64313;51.018;13.742;2023-03-21T12:44:04;3.38;;;1.58;;
75698;SDS011;64313;51.018;13.742;2023-03-21T12:46:53;4.22;;;1.80;;
75698;SDS011;64313;51.018;13.742;2023-03-21T12:51:54;3.38;;;1.42;;
75698;SDS011;64313;51.018;13.742;2023-03-21T12:54:32;4.90;;;2.00;;
75698;SDS011;64313;51.018;13.742;2023-03-21T12:57:09;4.40;;;1.75;;
75698;SDS011;64313;51.018;13.742;2023-03-21T12:59:45;3.42;;;1.40;;
75698;SDS011;64313;51.018;13.742;2023-03-21T13:02:25;4.55;;;1.55;;
75698;SDS011;64313;51.018;13.742;2023-03-21T13:05:06;4.10;;;1.33;;
75698;SDS011;64313;51.018;13.742;2023-03-21T13:07:51;4.22;;;1.60;;
75698;SDS011;64313;51.018;13.742;2023-03-21T13:10:22;4.63;;;1.92;;
75698;SDS011;64313;51.018;13.742;2023-03-21T13:15:46;6.25;;;2.45;;
75698;SDS011;64313;51.018;13.742;2023-03-21T13:21:17;4.78;;;2.00;;
75698;SDS011;64313;51.018;13.742;2023-03-21T13:23:58;4.60;;;1.88;;
75698;SDS011;64313;51.018;13.742;2023-03-21T13:29:34;5.38;;;1.95;;
75698;SDS011;64313;51.018;13.742;2023-03-21T13:32:23;4.55;;;1.85;;
75698;SDS011;64313;51.018;13.742;2023-03-21T13:35:11;4.97;;;1.63;;
75698;SDS011;64313;51.018;13.742;2023-03-21T13:37:38;3.95;;;1.73;;
75698;SDS011;64313;51.018;13.742;2023-03-21T13:40:11;4.45;;;1.90;;
75698;SDS011;64313;51.018;13.742;2023-03-21T13:46:04;3.65;;;1.70;;
75698;SDS011;64313;51.018;13.742;2023-03-21T13:49:14;3.83;;;1.75;;
75698;SDS011;64313;51.018;13.742;2023-03-21T13:59:16;4.97;;;1.73;;
75698;SDS011;64313;51.018;13.742;2023-03-21T14:04:22;4.75;;;1.55;;
75698;SDS011;64313;51.018;13.742;2023-03-21T14:06:58;3.72;;;1.50;;
75698;SDS011;64313;51.018;13.742;2023-03-21T14:09:33;3.63;;;1.60;;
75698;SDS011;64313;51.018;13.742;2023-03-21T14:12:02;4.03;;;1.60;;
75698;SDS011;64313;51.018;13.742;2023-03-21T14:14:32;4.22;;;1.77;;
75698;SDS011;64313;51.018;13.742;2023-03-21T14:17:09;5.43;;;1.58;;
75698;SDS011;64313;51.018;13.742;2023-03-21T14:19:52;4.60;;;1.63;;
75698;SDS011;64313;51.018;13.742;2023-03-21T14:22:19;4.50;;;1.63;;
75698;SDS011;64313;51.018;13.742;2023-03-21T14:24:48;4.03;;;1.40;;
75698;SDS011;64313;51.018;13.742;2023-03-21T14:27:20;3.75;;;1.38;;
75698;SDS011;64313;51.018;13.742;2023-03-21T14:29:46;3.47;;;1.38;;
75698;SDS011;64313;51.018;13.742;2023-03-21T14:32:21;3.83;;;1.27;;
75698;SDS011;64313;51.018;13.742;2023-03-21T14:34:48;4.13;;;1.70;;
75698;SDS011;64313;51.018;13.742;2023-03-21T14:37:27;4.88;;;1.60;;
75698;SDS011;64313;51.018;13.742;2023-03-21T14:39:59;4.55;;;1.50;;
75698;SDS011;64313;51.018;13.742;2023-03-21T14:42:32;3.40;;;1.33;;
75698;SDS011;64313;51.018;13.742;2023-03-21T14:44:59;3.25;;;1.40;;
75698;SDS011;64313;51.018;13.742;2023-03-21T14:47:35;3.33;;;1.30;;
75698;SDS011;64313;51.018;13.742;2023-03-21T14:50:01;3.25;;;1.33;;
75698;SDS011;64313;51.018;13.742;2023-03-21T14:52:31;3.08;;;1.20;;
75698;SDS011;64313;51.018;13.742;2023-03-21T14:54:58;3.95;;;1.50;;
75698;SDS011;64313;51.018;13.742;2023-03-21T14:57:29;3.90;;;1.48;;
75698;SDS011;64313;51.018;13.742;2023-03-21T14:59:58;3.42;;;1.40;;
75698;SDS011;64313;51.018;13.742;2023-03-21T15:02:27;3.53;;;1.48;;
75698;SDS011;64313;51.018;13.742;2023-03-21T15:04:56;3.60;;;1.50;;
75698;SDS011;64313;51.018;13.742;2023-03-21T15:07:31;4.25;;;1.60;;
75698;SDS011;64313;51.018;13.742;2023-03-21T15:09:58;4.40;;;1.90;;
75698;SDS011;64313;51.018;13.742;2023-03-21T15:12:28;4.10;;;1.92;;
75698;SDS011;64313;51.018;13.742;2023-03-21T15:14:53;3.95;;;1.70;;
75698;SDS011;64313;51.018;13.742;2023-03-21T15:17:19;3.45;;;1.52;;
75698;SDS011;64313;51.018;13.742;2023-03-21T15:19:46;3.85;;;1.67;;
75698;SDS011;64313;51.018;13.742;2023-03-21T15:22:29;3.38;;;1.38;;
75698;SDS011;64313;51.018;13.742;2023-03-21T15:24:59;3.10;;;1.50;;
75698;SDS011;64313;51.018;13.742;2023-03-21T15:27:29;3.55;;;1.48;;
75698;SDS011;64313;51.018;13.742;2023-03-21T15:29:58;3.45;;;1.38;;
75698;SDS011;64313;51.018;13.742;2023-03-21T15:32:25;2.95;;;1.20;;
75698;SDS011;64313;51.018;13.742;2023-03-21T15:35:02;4.38;;;1.50;;
75698;SDS011;64313;51.018;13.742;2023-03-21T15:37:33;7.45;;;1.80;;
75698;SDS011;64313;51.018;13.742;2023-03-21T15:42:44;4.55;;;1.80;;
75698;SDS011;64313;51.018;13.742;2023-03-21T15:45:14;3.30;;;1.42;;
75698;SDS011;64313;51.018;13.742;2023-03-21T15:47:54;4.57;;;1.52;;
75698;SDS011;64313;51.018;13.742;2023-03-21T15:50:37;4.43;;;1.90;;
75698;SDS011;64313;51.018;13.742;2023-03-21T15:53:06;3.47;;;1.58;;
75698;SDS011;64313;51.018;13.742;2023-03-21T15:55:51;3.78;;;1.65;;
75698;SDS011;64313;51.018;13.742;2023-03-21T15:58:21;3.90;;;1.40;;
75698;SDS011;64313;51.018;13.742;2023-03-21T16:00:50;4.47;;;1.90;;
75698;SDS011;64313;51.018;13.742;2023-03-21T16:03:27;5.00;;;1.90;;
75698;SDS011;64313;51.018;13.742;2023-03-21T16:06:03;4.68;;;1.80;;
75698;SDS011;64313;51.018;13.742;2023-03-21T16:08:50;4.18;;;2.03;;
75698;SDS011;64313;51.018;13.742;2023-03-21T16:13:46;3.97;;;1.67;;
75698;SDS011;64313;51.018;13.742;2023-03-21T16:16:13;3.90;;;1.63;;
75698;SDS011;64313;51.018;13.742;2023-03-21T16:18:41;3.63;;;1.70;;
75698;SDS011;64313;51.018;13.742;2023-03-21T16:21:09;4.78;;;2.00;;
75698;SDS011;64313;51.018;13.742;2023-03-21T16:23:36;4.53;;;1.90;;
75698;SDS011;64313;51.018;13.742;2023-03-21T16:26:01;3.92;;;1.80;;
75698;SDS011;64313;51.018;13.742;2023-03-21T16:28:29;4.05;;;1.70;;
75698;SDS011;64313;51.018;13.742;2023-03-21T16:30:54;4.65;;;1.50;;
75698;SDS011;64313;51.018;13.742;2023-03-21T16:33:20;4.65;;;1.90;;
75698;SDS011;64313;51.018;13.742;2023-03-21T16:35:46;4.60;;;1.70;;
75698;SDS011;64313;51.018;13.742;2023-03-21T16:38:11;4.30;;;1.50;;